Terminal Aerodrome Forecast
Issued by NWS Upton, NY

Home | Current Version | Previous Version | Text Only | Print | Product List | Glossary On
Versions: 1 2 3 4 5 6 7 8 9 10 11 12 13 14 15 16 17 18 19 20 21 22 23 24 25 26 27 28 29 30
000
FTUS41 KOKX 292131 AAB
TAFEWR
TAF AMD
KEWR 292131Z 2922/3024 33012G18KT P6SM FEW070 SCT250
     FM300000 35009KT P6SM FEW250
     FM300500 02008KT P6SM SKC
     FM301600 08006KT P6SM FEW250
     FM301900 16006KT P6SM SCT250=

USA.gov is the U.S. government's official web portal to all federal, state and local government web resources and services.